sensor_id;sensor_type;location;lat;lon;timestamp;P1;durP1;ratioP1;P2;durP2;ratioP2
11548;SDS011;61444;59.472;18.306;2024-01-10T00:01:19;1.07;;;0.37;;
11548;SDS011;61444;59.472;18.306;2024-01-10T00:03:33;0.40;;;0.30;;
11548;SDS011;61444;59.472;18.306;2024-01-10T00:05:41;0.63;;;0.30;;
11548;SDS011;61444;59.472;18.306;2024-01-10T00:07:50;0.53;;;0.47;;
11548;SDS011;61444;59.472;18.306;2024-01-10T00:09:58;2.33;;;0.40;;
11548;SDS011;61444;59.472;18.306;2024-01-10T00:12:09;0.40;;;0.30;;
11548;SDS011;61444;59.472;18.306;2024-01-10T00:14:18;2.30;;;0.40;;
11548;SDS011;61444;59.472;18.306;2024-01-10T00:16:26;0.60;;;0.40;;
11548;SDS011;61444;59.472;18.306;2024-01-10T00:18:34;0.77;;;0.50;;
11548;SDS011;61444;59.472;18.306;2024-01-10T00:20:43;0.67;;;0.50;;
11548;SDS011;61444;59.472;18.306;2024-01-10T00:22:51;0.60;;;0.50;;
11548;SDS011;61444;59.472;18.306;2024-01-10T00:25:00;0.50;;;0.40;;
11548;SDS011;61444;59.472;18.306;2024-01-10T00:27:09;1.07;;;0.50;;
11548;SDS011;61444;59.472;18.306;2024-01-10T00:29:17;0.90;;;0.50;;
11548;SDS011;61444;59.472;18.306;2024-01-10T00:31:25;2.50;;;0.40;;
11548;SDS011;61444;59.472;18.306;2024-01-10T00:33:34;0.40;;;0.40;;
11548;SDS011;61444;59.472;18.306;2024-01-10T00:35:43;0.63;;;0.30;;
11548;SDS011;61444;59.472;18.306;2024-01-10T00:37:50;1.00;;;0.40;;
11548;SDS011;61444;59.472;18.306;2024-01-10T00:39:59;0.40;;;0.37;;
11548;SDS011;61444;59.472;18.306;2024-01-10T00:42:09;0.30;;;0.30;;
11548;SDS011;61444;59.472;18.306;2024-01-10T00:44:18;0.53;;;0.47;;
11548;SDS011;61444;59.472;18.306;2024-01-10T00:46:26;0.70;;;0.37;;
11548;SDS011;61444;59.472;18.306;2024-01-10T00:48:35;0.30;;;0.30;;
11548;SDS011;61444;59.472;18.306;2024-01-10T00:50:43;0.50;;;0.30;;
11548;SDS011;61444;59.472;18.306;2024-01-10T00:52:52;0.50;;;0.40;;
11548;SDS011;61444;59.472;18.306;2024-01-10T00:55:00;0.40;;;0.27;;
11548;SDS011;61444;59.472;18.306;2024-01-10T00:57:10;0.30;;;0.30;;
11548;SDS011;61444;59.472;18.306;2024-01-10T00:59:18;0.40;;;0.40;;
11548;SDS011;61444;59.472;18.306;2024-01-10T01:01:27;1.23;;;0.40;;
11548;SDS011;61444;59.472;18.306;2024-01-10T01:03:36;0.30;;;0.20;;
11548;SDS011;61444;59.472;18.306;2024-01-10T01:05:44;0.40;;;0.30;;
11548;SDS011;61444;59.472;18.306;2024-01-10T01:07:53;0.30;;;0.20;;
11548;SDS011;61444;59.472;18.306;2024-01-10T01:10:02;0.40;;;0.30;;
11548;SDS011;61444;59.472;18.306;2024-01-10T01:12:12;0.50;;;0.40;;
11548;SDS011;61444;59.472;18.306;2024-01-10T01:14:20;0.50;;;0.30;;
11548;SDS011;61444;59.472;18.306;2024-01-10T01:16:29;0.20;;;0.20;;
11548;SDS011;61444;59.472;18.306;2024-01-10T01:18:37;0.30;;;0.20;;
11548;SDS011;61444;59.472;18.306;2024-01-10T01:20:46;0.40;;;0.30;;
11548;SDS011;61444;59.472;18.306;2024-01-10T01:22:56;0.60;;;0.40;;
11548;SDS011;61444;59.472;18.306;2024-01-10T01:25:05;0.60;;;0.30;;
11548;SDS011;61444;59.472;18.306;2024-01-10T01:27:15;0.40;;;0.30;;
11548;SDS011;61444;59.472;18.306;2024-01-10T01:29:22;0.37;;;0.30;;
11548;SDS011;61444;59.472;18.306;2024-01-10T01:31:31;0.50;;;0.30;;
11548;SDS011;61444;59.472;18.306;2024-01-10T01:33:39;0.30;;;0.30;;
11548;SDS011;61444;59.472;18.306;2024-01-10T01:35:48;0.30;;;0.10;;
11548;SDS011;61444;59.472;18.306;2024-01-10T01:37:56;0.40;;;0.30;;
11548;SDS011;61444;59.472;18.306;2024-01-10T01:40:05;0.20;;;0.20;;
11548;SDS011;61444;59.472;18.306;2024-01-10T01:42:15;0.30;;;0.20;;
11548;SDS011;61444;59.472;18.306;2024-01-10T01:44:24;0.30;;;0.30;;
11548;SDS011;61444;59.472;18.306;2024-01-10T01:46:32;0.20;;;0.20;;
11548;SDS011;61444;59.472;18.306;2024-01-10T01:48:41;0.50;;;0.30;;
11548;SDS011;61444;59.472;18.306;2024-01-10T01:50:50;0.40;;;0.30;;
11548;SDS011;61444;59.472;18.306;2024-01-10T01:52:59;0.50;;;0.30;;
11548;SDS011;61444;59.472;18.306;2024-01-10T01:55:07;0.40;;;0.20;;
11548;SDS011;61444;59.472;18.306;2024-01-10T01:57:17;0.30;;;0.20;;
11548;SDS011;61444;59.472;18.306;2024-01-10T01:59:25;0.30;;;0.20;;
11548;SDS011;61444;59.472;18.306;2024-01-10T02:01:34;0.40;;;0.20;;
11548;SDS011;61444;59.472;18.306;2024-01-10T02:03:42;0.30;;;0.20;;
11548;SDS011;61444;59.472;18.306;2024-01-10T02:05:51;0.30;;;0.30;;
11548;SDS011;61444;59.472;18.306;2024-01-10T02:07:59;0.40;;;0.23;;
11548;SDS011;61444;59.472;18.306;2024-01-10T02:10:08;0.50;;;0.20;;
11548;SDS011;61444;59.472;18.306;2024-01-10T02:12:19;0.33;;;0.30;;
11548;SDS011;61444;59.472;18.306;2024-01-10T02:14:28;0.40;;;0.27;;
11548;SDS011;61444;59.472;18.306;2024-01-10T02:16:36;0.40;;;0.30;;
11548;SDS011;61444;59.472;18.306;2024-01-10T02:18:44;0.30;;;0.30;;
11548;SDS011;61444;59.472;18.306;2024-01-10T02:20:52;0.30;;;0.30;;
11548;SDS011;61444;59.472;18.306;2024-01-10T02:23:01;0.30;;;0.30;;
11548;SDS011;61444;59.472;18.306;2024-01-10T02:25:10;0.30;;;0.20;;
11548;SDS011;61444;59.472;18.306;2024-01-10T02:27:18;0.40;;;0.20;;
11548;SDS011;61444;59.472;18.306;2024-01-10T02:29:27;0.33;;;0.30;;
11548;SDS011;61444;59.472;18.306;2024-01-10T02:31:34;0.50;;;0.20;;
11548;SDS011;61444;59.472;18.306;2024-01-10T02:33:43;1.00;;;0.40;;
11548;SDS011;61444;59.472;18.306;2024-01-10T02:35:51;0.43;;;0.20;;
11548;SDS011;61444;59.472;18.306;2024-01-10T02:38:01;0.30;;;0.23;;
11548;SDS011;61444;59.472;18.306;2024-01-10T02:40:10;0.30;;;0.20;;
11548;SDS011;61444;59.472;18.306;2024-01-10T02:42:19;0.40;;;0.30;;
11548;SDS011;61444;59.472;18.306;2024-01-10T02:44:27;0.30;;;0.30;;
11548;SDS011;61444;59.472;18.306;2024-01-10T02:46:36;0.23;;;0.20;;
11548;SDS011;61444;59.472;18.306;2024-01-10T02:48:44;0.40;;;0.20;;
11548;SDS011;61444;59.472;18.306;2024-01-10T02:50:53;0.40;;;0.20;;
11548;SDS011;61444;59.472;18.306;2024-01-10T02:53:02;0.27;;;0.20;;
11548;SDS011;61444;59.472;18.306;2024-01-10T02:55:12;0.33;;;0.30;;
11548;SDS011;61444;59.472;18.306;2024-01-10T02:57:20;0.30;;;0.23;;
11548;SDS011;61444;59.472;18.306;2024-01-10T02:59:29;0.30;;;0.30;;
11548;SDS011;61444;59.472;18.306;2024-01-10T03:01:36;0.40;;;0.30;;
11548;SDS011;61444;59.472;18.306;2024-01-10T03:03:46;0.30;;;0.20;;
11548;SDS011;61444;59.472;18.306;2024-01-10T03:05:55;0.43;;;0.33;;
11548;SDS011;61444;59.472;18.306;2024-01-10T03:08:04;0.40;;;0.20;;
11548;SDS011;61444;59.472;18.306;2024-01-10T03:10:15;0.60;;;0.20;;
11548;SDS011;61444;59.472;18.306;2024-01-10T03:12:23;0.60;;;0.40;;
11548;SDS011;61444;59.472;18.306;2024-01-10T03:14:32;0.93;;;0.30;;
11548;SDS011;61444;59.472;18.306;2024-01-10T03:16:40;0.60;;;0.20;;
11548;SDS011;61444;59.472;18.306;2024-01-10T03:18:49;0.70;;;0.30;;
11548;SDS011;61444;59.472;18.306;2024-01-10T03:20:58;0.30;;;0.30;;
11548;SDS011;61444;59.472;18.306;2024-01-10T03:23:06;0.30;;;0.30;;
11548;SDS011;61444;59.472;18.306;2024-01-10T03:25:16;0.30;;;0.20;;
11548;SDS011;61444;59.472;18.306;2024-01-10T03:27:24;0.53;;;0.30;;
11548;SDS011;61444;59.472;18.306;2024-01-10T03:29:33;0.50;;;0.40;;
11548;SDS011;61444;59.472;18.306;2024-01-10T03:31:42;0.60;;;0.40;;
11548;SDS011;61444;59.472;18.306;2024-01-10T03:33:50;0.40;;;0.23;;
11548;SDS011;61444;59.472;18.306;2024-01-10T03:35:58;0.43;;;0.20;;
11548;SDS011;61444;59.472;18.306;2024-01-10T03:38:06;1.93;;;0.30;;
11548;SDS011;61444;59.472;18.306;2024-01-10T03:40:16;0.23;;;0.20;;
11548;SDS011;61444;59.472;18.306;2024-01-10T03:42:25;0.30;;;0.20;;
11548;SDS011;61444;59.472;18.306;2024-01-10T03:44:33;0.60;;;0.20;;
11548;SDS011;61444;59.472;18.306;2024-01-10T03:46:41;0.20;;;0.20;;
11548;SDS011;61444;59.472;18.306;2024-01-10T03:48:50;0.43;;;0.40;;
11548;SDS011;61444;59.472;18.306;2024-01-10T03:50:59;0.27;;;0.23;;
11548;SDS011;61444;59.472;18.306;2024-01-10T03:53:06;0.30;;;0.27;;
11548;SDS011;61444;59.472;18.306;2024-01-10T03:55:16;0.40;;;0.30;;
11548;SDS011;61444;59.472;18.306;2024-01-10T03:57:25;0.50;;;0.30;;
11548;SDS011;61444;59.472;18.306;2024-01-10T03:59:33;0.30;;;0.30;;
11548;SDS011;61444;59.472;18.306;2024-01-10T04:01:42;0.57;;;0.30;;
11548;SDS011;61444;59.472;18.306;2024-01-10T04:03:50;1.03;;;0.30;;
11548;SDS011;61444;59.472;18.306;2024-01-10T04:05:59;1.00;;;0.27;;
11548;SDS011;61444;59.472;18.306;2024-01-10T04:08:07;0.30;;;0.20;;
11548;SDS011;61444;59.472;18.306;2024-01-10T04:10:17;0.40;;;0.30;;
11548;SDS011;61444;59.472;18.306;2024-01-10T04:12:25;0.70;;;0.23;;
11548;SDS011;61444;59.472;18.306;2024-01-10T04:14:34;0.60;;;0.40;;
11548;SDS011;61444;59.472;18.306;2024-01-10T04:16:42;0.40;;;0.30;;
11548;SDS011;61444;59.472;18.306;2024-01-10T04:18:51;0.43;;;0.30;;
11548;SDS011;61444;59.472;18.306;2024-01-10T04:20:58;0.40;;;0.30;;
11548;SDS011;61444;59.472;18.306;2024-01-10T04:23:08;0.43;;;0.20;;
11548;SDS011;61444;59.472;18.306;2024-01-10T04:25:18;0.30;;;0.27;;
11548;SDS011;61444;59.472;18.306;2024-01-10T04:27:27;0.73;;;0.40;;
11548;SDS011;61444;59.472;18.306;2024-01-10T04:29:35;0.80;;;0.30;;
11548;SDS011;61444;59.472;18.306;2024-01-10T04:31:44;0.30;;;0.20;;
11548;SDS011;61444;59.472;18.306;2024-01-10T04:33:52;0.30;;;0.23;;
11548;SDS011;61444;59.472;18.306;2024-01-10T04:36:01;0.63;;;0.40;;
11548;SDS011;61444;59.472;18.306;2024-01-10T04:38:09;0.50;;;0.40;;
11548;SDS011;61444;59.472;18.306;2024-01-10T04:40:19;1.13;;;0.30;;
11548;SDS011;61444;59.472;18.306;2024-01-10T04:42:26;0.60;;;0.40;;
11548;SDS011;61444;59.472;18.306;2024-01-10T04:44:35;0.70;;;0.40;;
11548;SDS011;61444;59.472;18.306;2024-01-10T04:46:43;0.33;;;0.30;;
11548;SDS011;61444;59.472;18.306;2024-01-10T04:48:52;0.40;;;0.27;;
11548;SDS011;61444;59.472;18.306;2024-01-10T04:51:00;0.57;;;0.40;;
11548;SDS011;61444;59.472;18.306;2024-01-10T04:53:09;0.30;;;0.20;;
11548;SDS011;61444;59.472;18.306;2024-01-10T04:55:19;0.60;;;0.30;;
11548;SDS011;61444;59.472;18.306;2024-01-10T04:57:27;1.57;;;0.40;;
11548;SDS011;61444;59.472;18.306;2024-01-10T04:59:38;0.30;;;0.30;;
11548;SDS011;61444;59.472;18.306;2024-01-10T05:01:47;0.50;;;0.40;;
11548;SDS011;61444;59.472;18.306;2024-01-10T05:03:57;0.50;;;0.30;;
11548;SDS011;61444;59.472;18.306;2024-01-10T05:06:06;0.30;;;0.30;;
11548;SDS011;61444;59.472;18.306;2024-01-10T05:08:14;1.00;;;0.90;;
11548;SDS011;61444;59.472;18.306;2024-01-10T05:10:28;0.60;;;0.50;;
11548;SDS011;61444;59.472;18.306;2024-01-10T05:12:36;0.40;;;0.40;;
11548;SDS011;61444;59.472;18.306;2024-01-10T05:14:45;0.53;;;0.40;;
11548;SDS011;61444;59.472;18.306;2024-01-10T05:16:53;0.50;;;0.30;;
11548;SDS011;61444;59.472;18.306;2024-01-10T05:19:01;1.03;;;0.30;;
11548;SDS011;61444;59.472;18.306;2024-01-10T05:21:10;0.70;;;0.40;;
11548;SDS011;61444;59.472;18.306;2024-01-10T05:23:19;0.57;;;0.30;;
11548;SDS011;61444;59.472;18.306;2024-01-10T05:25:29;1.70;;;0.60;;
11548;SDS011;61444;59.472;18.306;2024-01-10T05:27:37;0.40;;;0.30;;
11548;SDS011;61444;59.472;18.306;2024-01-10T05:29:46;0.60;;;0.30;;
11548;SDS011;61444;59.472;18.306;2024-01-10T05:31:54;0.77;;;0.37;;
11548;SDS011;61444;59.472;18.306;2024-01-10T05:34:03;0.57;;;0.40;;
11548;SDS011;61444;59.472;18.306;2024-01-10T05:36:12;0.50;;;0.30;;
11548;SDS011;61444;59.472;18.306;2024-01-10T05:38:21;0.43;;;0.30;;
11548;SDS011;61444;59.472;18.306;2024-01-10T05:40:31;0.90;;;0.37;;
11548;SDS011;61444;59.472;18.306;2024-01-10T05:42:39;0.50;;;0.50;;
11548;SDS011;61444;59.472;18.306;2024-01-10T05:44:48;0.50;;;0.40;;
11548;SDS011;61444;59.472;18.306;2024-01-10T05:46:56;0.97;;;0.50;;
11548;SDS011;61444;59.472;18.306;2024-01-10T05:49:06;0.97;;;0.50;;
11548;SDS011;61444;59.472;18.306;2024-01-10T05:51:14;0.50;;;0.20;;
11548;SDS011;61444;59.472;18.306;2024-01-10T05:53:23;0.47;;;0.30;;
11548;SDS011;61444;59.472;18.306;2024-01-10T05:55:33;1.43;;;0.40;;
11548;SDS011;61444;59.472;18.306;2024-01-10T05:57:43;0.57;;;0.40;;
11548;SDS011;61444;59.472;18.306;2024-01-10T05:59:51;0.60;;;0.50;;
11548;SDS011;61444;59.472;18.306;2024-01-10T06:02:44;0.40;;;0.20;;
11548;SDS011;61444;59.472;18.306;2024-01-10T06:04:53;1.20;;;0.50;;
11548;SDS011;61444;59.472;18.306;2024-01-10T06:07:01;0.80;;;0.50;;
11548;SDS011;61444;59.472;18.306;2024-01-10T06:09:10;1.40;;;0.30;;
11548;SDS011;61444;59.472;18.306;2024-01-10T06:11:20;0.43;;;0.40;;
11548;SDS011;61444;59.472;18.306;2024-01-10T06:13:28;0.40;;;0.30;;
11548;SDS011;61444;59.472;18.306;2024-01-10T06:15:54;0.60;;;0.57;;
11548;SDS011;61444;59.472;18.306;2024-01-10T06:18:03;0.93;;;0.53;;
11548;SDS011;61444;59.472;18.306;2024-01-10T06:20:11;1.50;;;1.00;;
11548;SDS011;61444;59.472;18.306;2024-01-10T06:22:20;1.87;;;0.80;;
11548;SDS011;61444;59.472;18.306;2024-01-10T06:24:35;3.13;;;0.80;;
11548;SDS011;61444;59.472;18.306;2024-01-10T06:26:45;0.60;;;0.57;;
11548;SDS011;61444;59.472;18.306;2024-01-10T06:28:54;0.40;;;0.30;;
11548;SDS011;61444;59.472;18.306;2024-01-10T06:31:02;0.70;;;0.40;;
11548;SDS011;61444;59.472;18.306;2024-01-10T06:33:13;0.63;;;0.40;;
11548;SDS011;61444;59.472;18.306;2024-01-10T06:35:21;1.47;;;0.70;;
11548;SDS011;61444;59.472;18.306;2024-01-10T06:37:29;0.70;;;0.50;;
11548;SDS011;61444;59.472;18.306;2024-01-10T06:39:41;0.97;;;0.40;;
11548;SDS011;61444;59.472;18.306;2024-01-10T06:41:51;0.60;;;0.30;;
11548;SDS011;61444;59.472;18.306;2024-01-10T06:44:00;0.83;;;0.50;;
11548;SDS011;61444;59.472;18.306;2024-01-10T06:46:09;0.60;;;0.37;;
11548;SDS011;61444;59.472;18.306;2024-01-10T06:48:18;0.50;;;0.50;;
11548;SDS011;61444;59.472;18.306;2024-01-10T06:50:26;0.50;;;0.40;;
11548;SDS011;61444;59.472;18.306;2024-01-10T06:52:37;1.33;;;0.50;;
11548;SDS011;61444;59.472;18.306;2024-01-10T06:54:45;3.57;;;0.57;;
11548;SDS011;61444;59.472;18.306;2024-01-10T06:56:54;1.10;;;0.70;;
11548;SDS011;61444;59.472;18.306;2024-01-10T06:59:02;3.50;;;0.80;;
11548;SDS011;61444;59.472;18.306;2024-01-10T07:01:13;2.97;;;0.70;;
11548;SDS011;61444;59.472;18.306;2024-01-10T07:03:22;1.87;;;0.80;;
11548;SDS011;61444;59.472;18.306;2024-01-10T07:05:31;2.27;;;1.00;;
11548;SDS011;61444;59.472;18.306;2024-01-10T07:07:39;1.30;;;0.53;;
11548;SDS011;61444;59.472;18.306;2024-01-10T07:09:48;0.40;;;0.30;;
11548;SDS011;61444;59.472;18.306;2024-01-10T07:11:58;0.93;;;0.43;;
11548;SDS011;61444;59.472;18.306;2024-01-10T07:14:06;1.13;;;0.40;;
11548;SDS011;61444;59.472;18.306;2024-01-10T07:16:15;1.60;;;0.50;;
11548;SDS011;61444;59.472;18.306;2024-01-10T07:18:26;1.07;;;0.50;;
11548;SDS011;61444;59.472;18.306;2024-01-10T07:20:35;1.40;;;0.60;;
11548;SDS011;61444;59.472;18.306;2024-01-10T07:22:44;0.80;;;0.30;;
11548;SDS011;61444;59.472;18.306;2024-01-10T07:24:52;0.57;;;0.40;;
11548;SDS011;61444;59.472;18.306;2024-01-10T07:27:02;0.60;;;0.47;;
11548;SDS011;61444;59.472;18.306;2024-01-10T07:29:12;0.57;;;0.40;;
11548;SDS011;61444;59.472;18.306;2024-01-10T07:31:21;0.50;;;0.47;;
11548;SDS011;61444;59.472;18.306;2024-01-10T07:33:29;1.60;;;0.57;;
11548;SDS011;61444;59.472;18.306;2024-01-10T07:35:38;0.83;;;0.60;;
11548;SDS011;61444;59.472;18.306;2024-01-10T07:37:46;0.70;;;0.50;;
11548;SDS011;61444;59.472;18.306;2024-01-10T07:39:55;1.80;;;0.70;;
11548;SDS011;61444;59.472;18.306;2024-01-10T07:42:05;1.57;;;0.70;;
11548;SDS011;61444;59.472;18.306;2024-01-10T07:44:14;1.40;;;0.53;;
11548;SDS011;61444;59.472;18.306;2024-01-10T07:46:22;0.80;;;0.50;;
11548;SDS011;61444;59.472;18.306;2024-01-10T07:48:33;1.10;;;0.60;;
11548;SDS011;61444;59.472;18.306;2024-01-10T07:50:42;1.47;;;1.13;;
11548;SDS011;61444;59.472;18.306;2024-01-10T07:52:51;1.40;;;0.80;;
11548;SDS011;61444;59.472;18.306;2024-01-10T07:54:59;1.50;;;0.90;;
11548;SDS011;61444;59.472;18.306;2024-01-10T07:57:12;1.47;;;0.73;;
11548;SDS011;61444;59.472;18.306;2024-01-10T07:59:21;1.00;;;0.60;;
11548;SDS011;61444;59.472;18.306;2024-01-10T08:01:31;2.33;;;0.87;;
11548;SDS011;61444;59.472;18.306;2024-01-10T08:03:39;0.50;;;0.33;;
11548;SDS011;61444;59.472;18.306;2024-01-10T08:05:48;0.60;;;0.50;;
11548;SDS011;61444;59.472;18.306;2024-01-10T08:07:56;0.60;;;0.60;;
11548;SDS011;61444;59.472;18.306;2024-01-10T08:10:06;0.80;;;0.50;;
11548;SDS011;61444;59.472;18.306;2024-01-10T08:12:15;1.53;;;0.70;;
11548;SDS011;61444;59.472;18.306;2024-01-10T08:14:24;1.47;;;0.57;;
11548;SDS011;61444;59.472;18.306;2024-01-10T08:16:33;1.60;;;0.50;;
11548;SDS011;61444;59.472;18.306;2024-01-10T08:18:41;0.53;;;0.33;;
11548;SDS011;61444;59.472;18.306;2024-01-10T08:20:52;0.40;;;0.40;;
11548;SDS011;61444;59.472;18.306;2024-01-10T08:23:01;0.97;;;0.50;;
11548;SDS011;61444;59.472;18.306;2024-01-10T08:25:10;1.13;;;0.50;;
11548;SDS011;61444;59.472;18.306;2024-01-10T08:27:21;0.73;;;0.50;;
11548;SDS011;61444;59.472;18.306;2024-01-10T08:29:29;0.93;;;0.60;;
11548;SDS011;61444;59.472;18.306;2024-01-10T08:31:38;0.80;;;0.43;;
11548;SDS011;61444;59.472;18.306;2024-01-10T08:33:46;0.80;;;0.50;;
11548;SDS011;61444;59.472;18.306;2024-01-10T08:35:55;0.47;;;0.40;;
11548;SDS011;61444;59.472;18.306;2024-01-10T08:38:05;0.80;;;0.60;;
11548;SDS011;61444;59.472;18.306;2024-01-10T08:40:14;0.73;;;0.50;;
11548;SDS011;61444;59.472;18.306;2024-01-10T08:42:25;0.53;;;0.43;;
11548;SDS011;61444;59.472;18.306;2024-01-10T08:44:33;1.57;;;0.50;;
11548;SDS011;61444;59.472;18.306;2024-01-10T08:46:41;0.80;;;0.60;;
11548;SDS011;61444;59.472;18.306;2024-01-10T08:48:50;0.60;;;0.50;;
11548;SDS011;61444;59.472;18.306;2024-01-10T08:50:59;0.93;;;0.60;;
11548;SDS011;61444;59.472;18.306;2024-01-10T08:53:08;1.13;;;0.70;;
11548;SDS011;61444;59.472;18.306;2024-01-10T08:55:16;3.57;;;0.50;;
11548;SDS011;61444;59.472;18.306;2024-01-10T08:57:27;0.50;;;0.50;;
11548;SDS011;61444;59.472;18.306;2024-01-10T08:59:36;0.90;;;0.60;;
11548;SDS011;61444;59.472;18.306;2024-01-10T09:01:45;1.17;;;0.50;;
11548;SDS011;61444;59.472;18.306;2024-01-10T09:03:53;0.40;;;0.37;;
11548;SDS011;61444;59.472;18.306;2024-01-10T09:06:02;0.70;;;0.50;;
11548;SDS011;61444;59.472;18.306;2024-01-10T09:08:17;0.70;;;0.47;;
11548;SDS011;61444;59.472;18.306;2024-01-10T09:10:25;0.30;;;0.30;;
11548;SDS011;61444;59.472;18.306;2024-01-10T09:12:36;0.93;;;0.60;;
11548;SDS011;61444;59.472;18.306;2024-01-10T09:14:45;1.27;;;0.60;;
11548;SDS011;61444;59.472;18.306;2024-01-10T09:16:54;1.00;;;0.60;;
11548;SDS011;61444;59.472;18.306;2024-01-10T09:19:02;2.30;;;0.63;;
11548;SDS011;61444;59.472;18.306;2024-01-10T09:21:14;0.93;;;0.70;;
11548;SDS011;61444;59.472;18.306;2024-01-10T09:23:22;1.07;;;0.70;;
11548;SDS011;61444;59.472;18.306;2024-01-10T09:25:31;0.93;;;0.63;;
11548;SDS011;61444;59.472;18.306;2024-01-10T09:27:41;1.07;;;0.80;;
11548;SDS011;61444;59.472;18.306;2024-01-10T09:29:54;0.80;;;0.60;;
11548;SDS011;61444;59.472;18.306;2024-01-10T09:32:03;1.57;;;0.73;;
11548;SDS011;61444;59.472;18.306;2024-01-10T09:34:11;0.50;;;0.40;;
11548;SDS011;61444;59.472;18.306;2024-01-10T09:36:20;0.90;;;0.70;;
11548;SDS011;61444;59.472;18.306;2024-01-10T09:38:28;0.97;;;0.67;;
11548;SDS011;61444;59.472;18.306;2024-01-10T09:40:37;0.97;;;0.57;;
11548;SDS011;61444;59.472;18.306;2024-01-10T09:42:48;0.77;;;0.50;;
11548;SDS011;61444;59.472;18.306;2024-01-10T09:44:58;2.20;;;0.50;;
11548;SDS011;61444;59.472;18.306;2024-01-10T09:47:07;1.17;;;0.80;;
11548;SDS011;61444;59.472;18.306;2024-01-10T09:49:16;1.30;;;0.73;;
11548;SDS011;61444;59.472;18.306;2024-01-10T09:51:24;2.20;;;0.60;;
11548;SDS011;61444;59.472;18.306;2024-01-10T09:53:32;2.70;;;0.60;;
11548;SDS011;61444;59.472;18.306;2024-01-10T09:55:44;1.60;;;1.13;;
11548;SDS011;61444;59.472;18.306;2024-01-10T09:57:54;1.10;;;0.80;;
11548;SDS011;61444;59.472;18.306;2024-01-10T10:00:03;1.40;;;0.80;;
11548;SDS011;61444;59.472;18.306;2024-01-10T10:02:17;1.10;;;0.80;;
11548;SDS011;61444;59.472;18.306;2024-01-10T10:04:27;1.17;;;0.80;;
11548;SDS011;61444;59.472;18.306;2024-01-10T10:06:35;2.83;;;0.93;;
11548;SDS011;61444;59.472;18.306;2024-01-10T10:08:44;2.03;;;1.00;;
11548;SDS011;61444;59.472;18.306;2024-01-10T10:10:52;2.30;;;0.97;;
11548;SDS011;61444;59.472;18.306;2024-01-10T10:13:02;1.27;;;0.70;;
11548;SDS011;61444;59.472;18.306;2024-01-10T10:15:16;1.80;;;1.23;;
11548;SDS011;61444;59.472;18.306;2024-01-10T10:17:25;1.27;;;0.80;;
11548;SDS011;61444;59.472;18.306;2024-01-10T10:19:36;1.37;;;0.70;;
11548;SDS011;61444;59.472;18.306;2024-01-10T10:21:47;1.17;;;0.63;;
11548;SDS011;61444;59.472;18.306;2024-01-10T10:23:58;0.90;;;0.60;;
11548;SDS011;61444;59.472;18.306;2024-01-10T10:26:11;1.73;;;0.80;;
11548;SDS011;61444;59.472;18.306;2024-01-10T10:28:29;1.30;;;0.83;;
11548;SDS011;61444;59.472;18.306;2024-01-10T10:30:41;1.10;;;0.73;;
11548;SDS011;61444;59.472;18.306;2024-01-10T10:32:50;1.70;;;0.40;;
11548;SDS011;61444;59.472;18.306;2024-01-10T10:34:59;2.03;;;1.20;;
11548;SDS011;61444;59.472;18.306;2024-01-10T10:37:09;1.50;;;0.80;;
11548;SDS011;61444;59.472;18.306;2024-01-10T10:39:18;1.40;;;0.70;;
11548;SDS011;61444;59.472;18.306;2024-01-10T10:41:27;1.27;;;0.83;;
11548;SDS011;61444;59.472;18.306;2024-01-10T10:43:38;2.67;;;1.40;;
11548;SDS011;61444;59.472;18.306;2024-01-10T10:45:48;2.30;;;1.00;;
11548;SDS011;61444;59.472;18.306;2024-01-10T10:47:57;2.17;;;1.00;;
11548;SDS011;61444;59.472;18.306;2024-01-10T10:50:06;0.60;;;0.50;;
11548;SDS011;61444;59.472;18.306;2024-01-10T10:52:16;0.77;;;0.53;;
11548;SDS011;61444;59.472;18.306;2024-01-10T10:54:25;2.77;;;1.17;;
11548;SDS011;61444;59.472;18.306;2024-01-10T10:56:33;0.90;;;0.63;;
11548;SDS011;61444;59.472;18.306;2024-01-10T10:58:43;0.93;;;0.60;;
11548;SDS011;61444;59.472;18.306;2024-01-10T11:00:52;0.90;;;0.60;;
11548;SDS011;61444;59.472;18.306;2024-01-10T11:03:00;0.70;;;0.50;;
11548;SDS011;61444;59.472;18.306;2024-01-10T11:05:10;0.80;;;0.50;;
11548;SDS011;61444;59.472;18.306;2024-01-10T11:07:18;2.17;;;0.70;;
11548;SDS011;61444;59.472;18.306;2024-01-10T11:09:27;1.00;;;0.47;;
11548;SDS011;61444;59.472;18.306;2024-01-10T11:11:41;0.50;;;0.50;;
11548;SDS011;61444;59.472;18.306;2024-01-10T11:14:00;0.40;;;0.33;;
11548;SDS011;61444;59.472;18.306;2024-01-10T11:16:23;1.33;;;0.57;;
11548;SDS011;61444;59.472;18.306;2024-01-10T11:18:41;1.37;;;0.50;;
11548;SDS011;61444;59.472;18.306;2024-01-10T11:21:01;0.77;;;0.30;;
11548;SDS011;61444;59.472;18.306;2024-01-10T11:23:23;1.07;;;0.40;;
11548;SDS011;61444;59.472;18.306;2024-01-10T11:25:36;0.90;;;0.50;;
11548;SDS011;61444;59.472;18.306;2024-01-10T11:27:44;0.30;;;0.30;;
11548;SDS011;61444;59.472;18.306;2024-01-10T11:30:11;0.50;;;0.40;;
11548;SDS011;61444;59.472;18.306;2024-01-10T11:32:22;0.90;;;0.40;;
11548;SDS011;61444;59.472;18.306;2024-01-10T11:34:30;0.33;;;0.30;;
11548;SDS011;61444;59.472;18.306;2024-01-10T11:36:39;0.97;;;0.67;;
11548;SDS011;61444;59.472;18.306;2024-01-10T11:38:48;1.53;;;0.40;;
11548;SDS011;61444;59.472;18.306;2024-01-10T11:40:58;1.57;;;0.60;;
11548;SDS011;61444;59.472;18.306;2024-01-10T11:43:06;0.80;;;0.40;;
11548;SDS011;61444;59.472;18.306;2024-01-10T11:47:53;0.50;;;0.40;;
11548;SDS011;61444;59.472;18.306;2024-01-10T11:50:02;0.77;;;0.47;;
11548;SDS011;61444;59.472;18.306;2024-01-10T11:52:13;2.73;;;0.50;;
11548;SDS011;61444;59.472;18.306;2024-01-10T11:54:39;0.70;;;0.40;;
11548;SDS011;61444;59.472;18.306;2024-01-10T11:56:48;1.10;;;0.50;;
11548;SDS011;61444;59.472;18.306;2024-01-10T11:59:01;0.80;;;0.60;;
11548;SDS011;61444;59.472;18.306;2024-01-10T12:01:10;1.10;;;0.40;;
11548;SDS011;61444;59.472;18.306;2024-01-10T12:03:20;3.00;;;0.40;;
11548;SDS011;61444;59.472;18.306;2024-01-10T12:05:29;0.93;;;0.60;;
11548;SDS011;61444;59.472;18.306;2024-01-10T12:07:40;0.77;;;0.50;;
11548;SDS011;61444;59.472;18.306;2024-01-10T12:09:48;1.17;;;0.60;;
11548;SDS011;61444;59.472;18.306;2024-01-10T12:11:57;0.70;;;0.40;;
11548;SDS011;61444;59.472;18.306;2024-01-10T12:14:05;0.80;;;0.50;;
11548;SDS011;61444;59.472;18.306;2024-01-10T12:16:17;0.40;;;0.30;;
11548;SDS011;61444;59.472;18.306;2024-01-10T12:18:26;0.73;;;0.50;;
11548;SDS011;61444;59.472;18.306;2024-01-10T12:20:35;0.70;;;0.50;;
11548;SDS011;61444;59.472;18.306;2024-01-10T12:22:44;0.60;;;0.50;;
11548;SDS011;61444;59.472;18.306;2024-01-10T12:24:53;1.87;;;0.50;;
11548;SDS011;61444;59.472;18.306;2024-01-10T12:27:01;0.63;;;0.40;;
11548;SDS011;61444;59.472;18.306;2024-01-10T12:29:10;1.20;;;0.70;;
11548;SDS011;61444;59.472;18.306;2024-01-10T12:31:19;1.70;;;0.60;;
11548;SDS011;61444;59.472;18.306;2024-01-10T12:33:30;0.60;;;0.40;;
11548;SDS011;61444;59.472;18.306;2024-01-10T12:35:39;0.93;;;0.50;;
11548;SDS011;61444;59.472;18.306;2024-01-10T12:37:55;0.70;;;0.50;;
11548;SDS011;61444;59.472;18.306;2024-01-10T12:40:04;0.37;;;0.23;;
11548;SDS011;61444;59.472;18.306;2024-01-10T12:42:16;2.90;;;0.50;;
11548;SDS011;61444;59.472;18.306;2024-01-10T12:44:27;0.63;;;0.37;;
11548;SDS011;61444;59.472;18.306;2024-01-10T12:46:35;0.50;;;0.37;;
11548;SDS011;61444;59.472;18.306;2024-01-10T12:48:45;2.53;;;0.57;;
11548;SDS011;61444;59.472;18.306;2024-01-10T12:51:07;2.17;;;0.30;;